createdAt,value
2023-04-25T00:01:58.780Z,64.46
2023-04-25T00:04:26.772Z,63.87
2023-04-25T00:06:55.201Z,63.09
2023-04-25T00:09:21.745Z,64.12
2023-04-25T00:11:48.267Z,64.12
2023-04-25T00:14:15.121Z,64.64
2023-04-25T00:16:42.266Z,64.70
2023-04-25T00:19:09.288Z,64.43
2023-04-25T00:21:36.418Z,64.14
2023-04-25T00:24:03.163Z,63.88
2023-04-25T00:26:29.842Z,64.50
2023-04-25T00:28:56.738Z,63.78
2023-04-25T00:31:23.274Z,64.33
2023-04-25T00:33:50.021Z,63.80
2023-04-25T00:36:18.011Z,62.63
2023-04-25T00:38:44.759Z,62.84
2023-04-25T00:41:11.637Z,63.91
2023-04-25T00:43:38.499Z,63.31
2023-04-25T00:46:05.180Z,62.51
2023-04-25T00:48:31.839Z,62.87
2023-04-25T00:50:59.535Z,64.12
2023-04-25T00:53:27.247Z,63.14
2023-04-25T00:55:54.589Z,62.98
2023-04-25T00:58:22.406Z,62.25
2023-04-25T01:00:51.088Z,61.88
2023-04-25T01:03:18.383Z,62.45
2023-04-25T01:05:45.200Z,63.92
2023-04-25T01:08:11.870Z,63.01
2023-04-25T01:10:38.581Z,62.70
2023-04-25T01:13:05.216Z,63.43
2023-04-25T01:15:31.909Z,63.39
2023-04-25T01:17:59.272Z,65.85
2023-04-25T01:20:27.317Z,63.95
2023-04-25T01:22:53.951Z,64.33
2023-04-25T01:25:21.675Z,64.19
2023-04-25T01:27:48.335Z,64.90
2023-04-25T01:30:15.401Z,63.52
2023-04-25T01:32:42.908Z,63.12
2023-04-25T01:35:11.916Z,63.07
2023-04-25T01:37:39.651Z,64.17
2023-04-25T01:40:08.258Z,63.21
2023-04-25T01:42:37.123Z,62.80
2023-04-25T01:45:04.353Z,64.09
2023-04-25T01:47:32.876Z,63.77
2023-04-25T01:49:59.831Z,63.24
2023-04-25T01:52:26.333Z,64.26
2023-04-25T01:54:53.435Z,63.02
2023-04-25T01:57:19.920Z,65.03
2023-04-25T01:59:46.909Z,65.65
2023-04-25T02:02:13.504Z,67.37
2023-04-25T02:04:40.883Z,68.44
2023-04-25T02:07:07.550Z,66.79
2023-04-25T02:09:34.245Z,66.30
2023-04-25T02:12:01.342Z,65.06
2023-04-25T02:14:28.293Z,65.57
2023-04-25T02:16:55.106Z,65.71
2023-04-25T02:19:21.728Z,64.55
2023-04-25T02:21:48.247Z,65.54
2023-04-25T02:24:14.726Z,65.79
2023-04-25T02:26:41.267Z,68.73
2023-04-25T02:29:08.062Z,69.25
2023-04-25T02:31:34.558Z,69.22
2023-04-25T02:34:01.157Z,70.52
2023-04-25T02:36:27.633Z,71.90
2023-04-25T02:38:54.312Z,72.58
2023-04-25T02:41:21.752Z,72.05
2023-04-25T02:43:48.821Z,73.29
2023-04-25T02:46:16.508Z,73.29
2023-04-25T02:48:45.740Z,72.32
2023-04-25T02:51:12.211Z,72.02
2023-04-25T02:53:38.727Z,72.06
2023-04-25T02:56:05.847Z,72.70
2023-04-25T02:58:32.334Z,73.23
2023-04-25T03:00:59.206Z,75.33
2023-04-25T03:03:25.932Z,75.03
2023-04-25T03:05:52.952Z,73.76
2023-04-25T03:08:19.766Z,73.37
2023-04-25T03:10:46.962Z,73.86
2023-04-25T03:13:13.461Z,74.07
2023-04-25T03:15:39.956Z,74.02
2023-04-25T03:18:06.746Z,72.82
2023-04-25T03:20:33.294Z,71.90
2023-04-25T03:23:00.066Z,71.31
2023-04-25T03:25:26.596Z,70.42
2023-04-25T03:27:53.088Z,70.84
2023-04-25T03:30:19.637Z,71.41
2023-04-25T03:32:46.298Z,71.30
2023-04-25T03:35:12.857Z,70.79
2023-04-25T03:37:39.384Z,71.31
2023-04-25T03:40:06.919Z,70.83
2023-04-25T03:42:33.411Z,69.96
2023-04-25T03:44:59.939Z,70.96
2023-04-25T03:47:26.763Z,72.45
2023-04-25T03:49:53.308Z,70.53
2023-04-25T03:52:20.001Z,70.12
2023-04-25T03:54:46.434Z,69.48
2023-04-25T03:57:13.251Z,70.27
2023-04-25T03:59:39.902Z,70.07
2023-04-25T04:02:06.823Z,69.53
2023-04-25T04:04:33.584Z,70.53
2023-04-25T04:07:00.679Z,70.35
2023-04-25T04:09:28.466Z,70.12
2023-04-25T04:11:55.010Z,71.24
2023-04-25T04:14:21.857Z,71.87
2023-04-25T04:16:48.493Z,71.74
2023-04-25T04:19:15.410Z,70.38
2023-04-25T04:21:41.888Z,70.21
2023-04-25T04:24:08.429Z,69.57
2023-04-25T04:26:35.423Z,68.15
2023-04-25T04:29:02.452Z,68.43
2023-04-25T04:31:29.051Z,67.21
2023-04-25T04:33:55.580Z,67.46
2023-04-25T04:36:23.898Z,67.23
2023-04-25T04:38:50.435Z,69.09
2023-04-25T04:41:17.222Z,68.14
2023-04-25T04:43:44.344Z,67.46
2023-04-25T04:46:11.402Z,68.30
2023-04-25T04:48:38.100Z,68.98
2023-04-25T04:51:04.585Z,68.89
2023-04-25T04:53:31.039Z,68.85
2023-04-25T04:55:57.572Z,69.58
2023-04-25T04:58:24.165Z,68.06
2023-04-25T05:00:50.854Z,67.80
2023-04-25T05:03:17.694Z,67.49
2023-04-25T05:05:44.428Z,68.37
2023-04-25T05:08:10.918Z,68.08
2023-04-25T05:10:37.423Z,68.37
2023-04-25T05:13:03.922Z,68.80
2023-04-25T05:15:30.946Z,68.00
2023-04-25T05:17:57.681Z,67.41
2023-04-25T05:20:24.371Z,67.08
2023-04-25T05:22:50.866Z,66.86
2023-04-25T05:25:17.427Z,65.89
2023-04-25T05:27:43.968Z,65.32
2023-04-25T05:30:10.969Z,64.51
2023-04-25T05:32:37.694Z,64.63
2023-04-25T05:35:04.537Z,63.40
2023-04-25T05:37:33.733Z,62.64
2023-04-25T05:40:00.928Z,62.57
2023-04-25T05:42:27.503Z,62.96
2023-04-25T05:44:54.081Z,62.10
2023-04-25T05:47:20.579Z,62.61
2023-04-25T05:49:47.055Z,62.41
2023-04-25T05:52:13.587Z,60.72
2023-04-25T05:54:40.058Z,62.72
2023-04-25T05:57:06.564Z,61.04
2023-04-25T05:59:33.074Z,60.03
2023-04-25T06:01:59.678Z,59.06
2023-04-25T06:04:26.748Z,59.00
2023-04-25T06:06:53.354Z,60.02
2023-04-25T06:09:19.949Z,61.36
2023-04-25T06:11:46.523Z,60.38
2023-04-25T06:14:13.277Z,59.09
2023-04-25T06:16:39.775Z,59.13
2023-04-25T06:19:06.516Z,59.49
2023-04-25T06:21:33.100Z,59.07
2023-04-25T06:23:59.865Z,58.26
2023-04-25T06:26:26.415Z,58.94
2023-04-25T06:28:53.120Z,58.14
2023-04-25T06:31:19.652Z,58.13
2023-04-25T06:33:46.513Z,56.78
2023-04-25T06:36:13.080Z,56.98
2023-04-25T06:38:39.937Z,56.67
2023-04-25T06:41:06.485Z,55.15
2023-04-25T06:43:34.444Z,56.20
2023-04-25T06:46:01.692Z,56.70
2023-04-25T06:48:28.599Z,56.58
2023-04-25T06:50:55.351Z,56.02
2023-04-25T06:53:21.824Z,57.36
2023-04-25T06:55:48.330Z,55.23
2023-04-25T06:58:14.849Z,54.45
2023-04-25T07:00:41.386Z,53.24
2023-04-25T07:03:08.003Z,54.40
2023-04-25T07:05:34.703Z,54.48
2023-04-25T07:08:01.221Z,51.88
2023-04-25T07:10:28.148Z,52.46
2023-04-25T07:12:54.726Z,51.08
2023-04-25T07:15:21.272Z,49.45
2023-04-25T07:17:47.966Z,51.11
2023-04-25T07:20:14.619Z,50.37
2023-04-25T07:22:41.130Z,49.81
2023-04-25T07:25:08.165Z,48.13
2023-04-25T07:27:34.706Z,49.52
2023-04-25T07:30:01.174Z,49.71
2023-04-25T07:32:27.967Z,49.10
2023-04-25T07:34:54.554Z,49.19
2023-04-25T07:37:21.148Z,48.71
2023-04-25T07:39:47.989Z,48.95
2023-04-25T07:42:14.487Z,50.09
2023-04-25T07:44:41.226Z,49.58
2023-04-25T07:47:08.083Z,48.34
2023-04-25T07:49:36.334Z,46.79
2023-04-25T07:52:03.923Z,46.32
2023-04-25T07:54:30.820Z,45.79
2023-04-25T07:56:57.398Z,44.38
2023-04-25T07:59:23.973Z,46.09
2023-04-25T08:01:50.550Z,44.84
2023-04-25T08:04:17.774Z,46.36
2023-04-25T08:06:44.397Z,45.44
2023-04-25T08:09:11.404Z,43.84
2023-04-25T08:11:38.359Z,42.60
2023-04-25T08:14:04.930Z,43.42
2023-04-25T08:16:31.896Z,42.75
2023-04-25T08:18:58.537Z,41.94
2023-04-25T08:21:25.099Z,40.83
2023-04-25T08:23:51.623Z,40.46
2023-04-25T08:26:18.091Z,38.98
2023-04-25T08:28:44.829Z,38.67
2023-04-25T08:31:11.636Z,41.72
2023-04-25T08:33:38.159Z,41.15
2023-04-25T08:36:05.455Z,43.09
2023-04-25T08:38:32.451Z,41.44
2023-04-25T08:41:01.833Z,41.07
2023-04-25T08:43:30.321Z,40.98
2023-04-25T08:46:00.861Z,39.51
2023-04-25T08:48:33.603Z,38.90
2023-04-25T08:51:03.601Z,37.94
2023-04-25T08:53:33.837Z,36.90
2023-04-25T08:56:05.170Z,36.58
2023-04-25T08:58:31.759Z,36.53
2023-04-25T09:00:58.706Z,37.21
2023-04-25T09:03:25.528Z,35.66
2023-04-25T09:05:52.566Z,36.73
2023-04-25T09:08:19.196Z,35.93
2023-04-25T09:10:45.972Z,35.27
2023-04-25T09:13:22.220Z,37.18
2023-04-25T09:15:49.936Z,35.80
2023-04-25T09:18:29.941Z,36.10
2023-04-25T09:21:01.965Z,34.47
2023-04-25T09:23:29.726Z,34.37
2023-04-25T09:25:56.453Z,36.35
2023-04-25T09:28:28.559Z,37.18
2023-04-25T09:31:01.108Z,37.57
2023-04-25T09:33:33.001Z,38.93
2023-04-25T09:36:11.981Z,38.03
2023-04-25T09:38:43.106Z,36.77
2023-04-25T09:41:10.645Z,36.13
2023-04-25T09:43:37.690Z,36.00
2023-04-25T09:46:12.381Z,35.22
2023-04-25T09:48:39.685Z,35.99
2023-04-25T09:51:14.871Z,36.87
2023-04-25T09:53:43.678Z,36.72
2023-04-25T09:56:12.122Z,36.47
2023-04-25T09:58:40.673Z,36.89
2023-04-25T10:01:09.765Z,35.46
2023-04-25T10:03:43.670Z,34.34
2023-04-25T10:06:16.007Z,33.42
2023-04-25T10:08:42.741Z,33.57
2023-04-25T10:11:09.764Z,32.03
2023-04-25T10:13:36.845Z,32.07
2023-04-25T10:16:04.876Z,27.96
2023-04-25T10:18:32.407Z,25.31
2023-04-25T10:21:01.675Z,26.79
2023-04-25T10:23:28.563Z,23.99
2023-04-25T10:25:55.467Z,24.34
2023-04-25T10:28:22.050Z,23.01
2023-04-25T10:31:06.358Z,21.88
2023-04-25T10:33:41.868Z,19.53
2023-04-25T10:36:14.900Z,22.10
2023-04-25T10:38:43.981Z,22.45
2023-04-25T10:41:12.289Z,20.32
2023-04-25T10:43:43.558Z,18.33
2023-04-25T10:46:30.105Z,22.12
2023-04-25T10:49:01.154Z,28.98
2023-04-25T10:51:53.848Z,29.23
2023-04-25T10:54:23.406Z,30.74
2023-04-25T10:56:50.535Z,31.29
2023-04-25T10:59:19.617Z,34.61
2023-04-25T11:01:53.423Z,36.14
2023-04-25T11:04:30.011Z,37.04
2023-04-25T11:07:07.419Z,38.94
2023-04-25T11:09:39.651Z,40.08
2023-04-25T11:12:08.774Z,40.02
2023-04-25T11:14:35.407Z,42.79
2023-04-25T11:17:03.315Z,44.82
2023-04-25T11:19:31.173Z,45.15
2023-04-25T11:21:58.890Z,46.55
2023-04-25T11:24:32.481Z,45.87
2023-04-25T11:26:59.873Z,45.40
2023-04-25T11:29:31.392Z,45.46
2023-04-25T11:32:02.116Z,44.82
2023-04-25T11:34:31.731Z,44.69
2023-04-25T11:36:58.687Z,43.25
2023-04-25T11:39:25.917Z,40.90
2023-04-25T11:41:53.120Z,39.76
2023-04-25T11:44:20.594Z,40.19
2023-04-25T11:46:47.780Z,41.48
2023-04-25T11:49:15.740Z,39.70
2023-04-25T11:51:47.837Z,37.00
2023-04-25T11:54:15.227Z,35.59
2023-04-25T11:56:45.803Z,34.19
2023-04-25T11:59:13.205Z,32.66
2023-04-25T12:01:42.172Z,26.86
2023-04-25T12:04:25.226Z,23.34
2023-04-25T12:06:56.518Z,22.54
2023-04-25T12:09:34.165Z,20.85
2023-04-25T12:12:04.710Z,21.91
2023-04-25T12:14:36.593Z,20.88
2023-04-25T12:17:05.268Z,24.17
2023-04-25T12:19:41.599Z,25.05
2023-04-25T12:22:24.786Z,26.36
2023-04-25T12:24:51.440Z,28.01
2023-04-25T12:27:19.905Z,27.78
2023-04-25T12:29:55.058Z,27.80
2023-04-25T12:32:21.881Z,28.21
2023-04-25T12:34:48.385Z,27.78
2023-04-25T12:37:15.267Z,27.94
2023-04-25T12:39:41.757Z,27.10
2023-04-25T12:42:14.177Z,26.19
2023-04-25T12:44:41.388Z,27.42
2023-04-25T12:47:08.138Z,27.87
2023-04-25T12:49:34.894Z,27.21
2023-04-25T12:52:01.406Z,27.69
2023-04-25T12:54:28.100Z,29.10
2023-04-25T12:56:54.693Z,30.96
2023-04-25T12:59:22.175Z,31.10
2023-04-25T13:01:48.757Z,32.38
2023-04-25T13:04:16.132Z,32.80
2023-04-25T13:06:43.300Z,34.40
2023-04-25T13:09:09.915Z,35.51
2023-04-25T13:11:36.525Z,35.70
2023-04-25T13:14:03.251Z,35.04
2023-04-25T13:16:29.772Z,34.95
2023-04-25T13:18:57.383Z,34.24
2023-04-25T13:21:24.252Z,34.12
2023-04-25T13:23:51.232Z,34.32
2023-04-25T13:26:18.275Z,33.95
2023-04-25T13:28:45.102Z,35.49
2023-04-25T13:31:12.031Z,34.17
2023-04-25T13:33:38.606Z,31.75
2023-04-25T13:36:05.315Z,31.17
2023-04-25T13:38:31.881Z,32.61
2023-04-25T13:40:58.449Z,32.68
2023-04-25T13:43:25.160Z,34.98
2023-04-25T13:45:52.495Z,33.76
2023-04-25T13:48:19.852Z,33.79
2023-04-25T13:50:46.627Z,34.16
2023-04-25T13:53:13.750Z,33.15
2023-04-25T13:55:40.605Z,32.65
2023-04-25T13:58:08.949Z,32.80
2023-04-25T14:00:40.543Z,36.38
2023-04-25T14:03:08.859Z,38.91
2023-04-25T14:05:39.216Z,41.88
2023-04-25T14:08:07.983Z,44.85
2023-04-25T14:10:34.846Z,42.82
2023-04-25T14:13:02.123Z,43.30
2023-04-25T14:15:28.947Z,41.83
2023-04-25T14:17:55.488Z,41.72
2023-04-25T14:20:22.366Z,41.94
2023-04-25T14:22:48.916Z,41.99
2023-04-25T14:25:15.706Z,41.11
2023-04-25T14:27:42.204Z,39.85
2023-04-25T14:30:10.482Z,37.91
2023-04-25T14:32:37.070Z,36.42
2023-04-25T14:35:03.729Z,35.81
2023-04-25T14:37:30.467Z,36.80
2023-04-25T14:39:56.932Z,35.67
2023-04-25T14:42:23.474Z,36.89
2023-04-25T14:44:50.059Z,37.53
2023-04-25T14:47:16.921Z,37.25
2023-04-25T14:49:43.541Z,36.59
2023-04-25T14:52:10.096Z,35.31
2023-04-25T14:54:36.836Z,34.53
2023-04-25T14:57:03.812Z,34.50
2023-04-25T14:59:30.452Z,34.97
2023-04-25T15:01:59.491Z,34.82
2023-04-25T15:04:26.806Z,39.51
2023-04-25T15:06:53.462Z,41.88
2023-04-25T15:09:20.386Z,43.55
2023-04-25T15:11:46.890Z,42.86
2023-04-25T15:14:13.406Z,45.68
2023-04-25T15:16:39.884Z,47.15
2023-04-25T15:19:06.754Z,47.69
2023-04-25T15:21:33.603Z,46.34
2023-04-25T15:24:00.141Z,46.22
2023-04-25T15:26:27.637Z,45.72
2023-04-25T15:28:54.195Z,45.25
2023-04-25T15:31:20.883Z,44.57
2023-04-25T15:33:47.483Z,43.70
2023-04-25T15:36:14.096Z,43.55
2023-04-25T15:38:41.331Z,42.96
2023-04-25T15:41:07.874Z,41.52
2023-04-25T15:43:38.272Z,42.44
2023-04-25T15:46:06.042Z,42.11
2023-04-25T15:48:33.449Z,41.05
2023-04-25T15:51:00.007Z,40.75
2023-04-25T15:53:26.980Z,39.95
2023-04-25T15:55:53.488Z,38.79
2023-04-25T15:58:20.072Z,38.56
2023-04-25T16:00:49.040Z,37.43
2023-04-25T16:03:15.604Z,37.06
2023-04-25T16:05:42.604Z,36.75
2023-04-25T16:08:09.221Z,38.54
2023-04-25T16:10:36.584Z,37.23
2023-04-25T16:13:03.780Z,39.20
2023-04-25T16:15:32.220Z,37.09
2023-04-25T16:17:59.598Z,38.45
2023-04-25T16:20:26.161Z,38.72
2023-04-25T16:22:52.765Z,38.60
2023-04-25T16:25:21.744Z,37.82
2023-04-25T16:27:48.242Z,37.41
2023-04-25T16:30:15.269Z,37.38
2023-04-25T16:32:44.746Z,37.94
2023-04-25T16:35:12.277Z,36.99
2023-04-25T16:37:39.114Z,37.30
2023-04-25T16:40:08.876Z,37.44
2023-04-25T16:42:36.354Z,37.63
2023-04-25T16:45:05.000Z,37.16
2023-04-25T16:47:32.339Z,38.45
2023-04-25T16:50:00.485Z,38.03
2023-04-25T16:52:27.050Z,37.60
2023-04-25T16:54:53.630Z,38.21
2023-04-25T16:57:21.094Z,38.79
2023-04-25T16:59:47.853Z,40.53
2023-04-25T17:02:14.921Z,40.20
2023-04-25T17:04:41.789Z,39.63
2023-04-25T17:07:09.019Z,39.77
2023-04-25T17:09:36.247Z,39.45
2023-04-25T17:12:04.091Z,40.45
2023-04-25T17:14:33.043Z,40.82
2023-04-25T17:16:59.635Z,40.75
2023-04-25T17:19:26.618Z,40.18
2023-04-25T17:21:53.240Z,40.32
2023-04-25T17:24:21.887Z,40.76
2023-04-25T17:26:49.032Z,40.91
2023-04-25T17:29:16.427Z,41.48
2023-04-25T17:31:44.363Z,41.35
2023-04-25T17:34:17.575Z,40.74
2023-04-25T17:36:45.392Z,41.79
2023-04-25T17:39:12.352Z,40.41
2023-04-25T17:41:39.176Z,40.57
2023-04-25T17:44:05.815Z,39.47
2023-04-25T17:46:32.453Z,40.56
2023-04-25T17:48:59.046Z,40.63
2023-04-25T17:51:26.376Z,40.85
2023-04-25T17:53:52.928Z,40.85
2023-04-25T17:56:27.224Z,40.84
2023-04-25T17:58:55.216Z,40.73
2023-04-25T18:01:22.551Z,40.99
2023-04-25T18:03:50.001Z,40.60
2023-04-25T18:06:17.863Z,40.28
2023-04-25T18:08:44.853Z,39.77
2023-04-25T18:11:12.183Z,39.71
2023-04-25T18:13:39.387Z,39.44
2023-04-25T18:16:06.559Z,39.68
2023-04-25T18:18:35.644Z,39.85
2023-04-25T18:21:04.924Z,39.55
2023-04-25T18:23:33.723Z,39.33
2023-04-25T18:26:00.246Z,39.81
2023-04-25T18:28:26.806Z,39.45
2023-04-25T18:30:54.258Z,40.06
2023-04-25T18:33:22.367Z,39.29
2023-04-25T18:35:58.640Z,38.47
2023-04-25T18:38:35.336Z,38.98
2023-04-25T18:41:34.353Z,38.72
2023-04-25T18:44:02.365Z,39.30
2023-04-25T18:46:30.774Z,38.93
2023-04-25T18:48:58.010Z,39.47
2023-04-25T18:51:29.357Z,39.06
2023-04-25T18:53:56.302Z,39.15
2023-04-25T18:56:24.676Z,39.23
2023-04-25T18:58:53.331Z,39.46
2023-04-25T19:01:23.369Z,39.18
2023-04-25T19:03:57.151Z,39.57
2023-04-25T19:06:28.986Z,39.90
2023-04-25T19:08:57.376Z,39.70
2023-04-25T19:11:24.394Z,40.49
2023-04-25T19:13:51.477Z,40.17
2023-04-25T19:16:18.557Z,40.26
2023-04-25T19:18:46.350Z,40.50
2023-04-25T19:21:13.038Z,40.49
2023-04-25T19:23:39.529Z,40.51
2023-04-25T19:26:06.242Z,40.32
2023-04-25T19:28:33.652Z,40.41
2023-04-25T19:31:00.256Z,41.01
2023-04-25T19:33:26.990Z,41.07
2023-04-25T19:35:53.449Z,41.24
2023-04-25T19:38:20.298Z,41.60
2023-04-25T19:40:46.848Z,41.38
2023-04-25T19:43:13.495Z,41.71
2023-04-25T19:45:40.056Z,42.19
2023-04-25T19:48:08.704Z,41.86
2023-04-25T19:50:35.395Z,42.26
2023-04-25T19:53:01.919Z,42.70
2023-04-25T19:55:28.604Z,43.30
2023-04-25T19:57:55.113Z,42.46
2023-04-25T20:00:22.152Z,42.35
2023-04-25T20:02:48.856Z,42.74
2023-04-25T20:05:17.008Z,42.40
2023-04-25T20:07:43.555Z,42.47
2023-04-25T20:10:13.648Z,42.28
2023-04-25T20:12:40.612Z,42.44
2023-04-25T20:15:11.639Z,43.12
2023-04-25T20:17:40.056Z,43.42
2023-04-25T20:20:07.620Z,42.85
2023-04-25T20:22:38.732Z,43.07
2023-04-25T20:25:06.621Z,43.10
2023-04-25T20:27:33.211Z,43.77
2023-04-25T20:30:03.456Z,43.75
2023-04-25T20:32:32.205Z,43.61
2023-04-25T20:34:58.732Z,44.00
2023-04-25T20:37:25.293Z,45.29
2023-04-25T20:39:52.424Z,44.51
2023-04-25T20:42:18.944Z,44.58
2023-04-25T20:44:45.497Z,44.82
2023-04-25T20:47:12.111Z,45.81
2023-04-25T20:49:38.617Z,46.44
2023-04-25T20:52:05.624Z,45.95
2023-04-25T20:54:32.178Z,46.52
2023-04-25T20:56:58.639Z,46.38
2023-04-25T20:59:25.424Z,46.33
2023-04-25T21:01:54.069Z,46.61
2023-04-25T21:04:21.090Z,46.65
2023-04-25T21:06:48.187Z,46.54
2023-04-25T21:09:14.776Z,46.59
2023-04-25T21:11:41.837Z,47.25
2023-04-25T21:14:08.692Z,47.28
2023-04-25T21:16:35.581Z,47.36
2023-04-25T21:19:02.344Z,47.68
2023-04-25T21:21:29.073Z,47.84
2023-04-25T21:23:57.491Z,47.75
2023-04-25T21:26:24.278Z,48.22
2023-04-25T21:28:51.376Z,48.17
2023-04-25T21:31:18.392Z,48.37
2023-04-25T21:33:45.093Z,48.69
2023-04-25T21:36:12.076Z,48.28
2023-04-25T21:38:38.645Z,48.36
2023-04-25T21:41:05.442Z,48.48
2023-04-25T21:43:32.504Z,48.58
2023-04-25T21:46:21.338Z,48.69
2023-04-25T21:48:45.682Z,48.19
2023-04-25T21:51:12.171Z,48.44
2023-04-25T21:53:38.750Z,48.39
2023-04-25T21:56:05.470Z,48.98
2023-04-25T21:58:32.037Z,49.58
2023-04-25T22:00:59.497Z,50.00
2023-04-25T22:03:26.219Z,49.43
2023-04-25T22:05:52.868Z,49.30
2023-04-25T22:08:20.724Z,49.28
2023-04-25T22:10:47.238Z,49.18
2023-04-25T22:13:15.228Z,49.01
2023-04-25T22:15:41.729Z,49.10
2023-04-25T22:18:08.581Z,49.48
2023-04-25T22:20:36.705Z,51.01
2023-04-25T22:23:03.238Z,50.25
2023-04-25T22:25:29.806Z,49.97
2023-04-25T22:27:57.242Z,49.76
2023-04-25T22:30:23.939Z,49.42
2023-04-25T22:32:51.082Z,49.24
2023-04-25T22:35:17.868Z,49.64
2023-04-25T22:37:44.845Z,49.87
2023-04-25T22:40:12.065Z,49.14
2023-04-25T22:42:40.192Z,49.11
2023-04-25T22:45:08.160Z,49.23
2023-04-25T22:47:38.867Z,49.35
2023-04-25T22:50:08.112Z,49.76
2023-04-25T22:52:35.300Z,50.36
2023-04-25T22:55:05.223Z,49.67
2023-04-25T22:57:32.082Z,49.97
2023-04-25T22:59:58.755Z,49.57
2023-04-25T23:02:25.870Z,49.73
2023-04-25T23:04:53.962Z,50.28
2023-04-25T23:07:20.832Z,50.51
2023-04-25T23:09:47.446Z,50.79
2023-04-25T23:12:14.073Z,50.37
2023-04-25T23:14:40.558Z,50.38
2023-04-25T23:17:07.755Z,50.95
2023-04-25T23:19:34.457Z,50.96
2023-04-25T23:22:01.843Z,51.67
2023-04-25T23:24:28.461Z,51.35
2023-04-25T23:26:54.919Z,51.35
2023-04-25T23:29:21.459Z,51.41
2023-04-25T23:31:47.984Z,50.91
2023-04-25T23:34:14.454Z,51.13
2023-04-25T23:36:41.581Z,50.74
2023-04-25T23:39:10.041Z,50.46
2023-04-25T23:41:36.582Z,50.29
2023-04-25T23:44:03.525Z,50.32
2023-04-25T23:46:30.952Z,49.66
2023-04-25T23:48:57.703Z,49.52
2023-04-25T23:51:25.221Z,49.18
2023-04-25T23:53:51.858Z,50.72
2023-04-25T23:56:18.358Z,50.00
2023-04-25T23:58:44.890Z,49.83
